createdAt,value
2018-03-28T00:00:32.113Z,999.49
2018-03-28T00:01:32.078Z,999.52
2018-03-28T00:02:32.052Z,999.52
2018-03-28T00:03:32.033Z,999.49
2018-03-28T00:04:31.994Z,999.51
2018-03-28T00:05:32.000Z,999.49
2018-03-28T00:06:31.943Z,999.46
2018-03-28T00:07:31.929Z,999.45
2018-03-28T00:08:31.889Z,999.48
2018-03-28T00:09:31.867Z,999.47
2018-03-28T00:10:31.841Z,999.45
2018-03-28T00:11:31.808Z,999.48
2018-03-28T00:12:31.788Z,999.47
2018-03-28T00:13:31.753Z,999.43
2018-03-28T00:14:31.730Z,999.43
2018-03-28T00:15:31.701Z,999.42
2018-03-28T00:16:31.685Z,999.38
2018-03-28T00:17:31.647Z,999.38
2018-03-28T00:18:31.622Z,999.40
2018-03-28T00:19:31.599Z,999.35
2018-03-28T00:20:31.571Z,999.37
2018-03-28T00:21:31.554Z,999.35
2018-03-28T00:22:31.516Z,999.34
2018-03-28T00:23:31.491Z,999.29
2018-03-28T00:24:31.454Z,999.28
2018-03-28T00:25:31.438Z,999.22
2018-03-28T00:26:31.402Z,999.21
2018-03-28T00:27:31.382Z,999.16
2018-03-28T00:28:31.369Z,999.17
2018-03-28T00:29:31.322Z,999.16
2018-03-28T00:30:31.299Z,999.17
2018-03-28T00:31:31.275Z,999.12
2018-03-28T00:32:31.241Z,999.12
2018-03-28T00:33:31.215Z,999.12
2018-03-28T00:34:31.195Z,999.09
2018-03-28T00:35:31.164Z,999.13
2018-03-28T00:36:31.134Z,999.14
2018-03-28T00:37:31.113Z,999.12
2018-03-28T00:38:31.085Z,999.16
2018-03-28T00:39:31.055Z,999.14
2018-03-28T00:40:31.031Z,999.14
2018-03-28T00:41:31.001Z,999.12
2018-03-28T00:42:30.972Z,999.10
2018-03-28T00:43:30.946Z,999.14
2018-03-28T00:44:30.916Z,999.14
2018-03-28T00:45:30.899Z,999.06
2018-03-28T00:46:30.869Z,999.04
2018-03-28T00:47:30.834Z,999.02
2018-03-28T00:48:30.821Z,998.99
2018-03-28T00:49:30.788Z,999.01
2018-03-28T00:50:30.752Z,998.97
2018-03-28T00:51:30.723Z,999.01
2018-03-28T00:52:30.708Z,999.00
2018-03-28T00:53:30.673Z,999.02
2018-03-28T00:54:30.656Z,999.00
2018-03-28T00:55:30.622Z,998.97
2018-03-28T00:56:30.589Z,999.00
2018-03-28T00:57:30.572Z,999.00
2018-03-28T00:58:30.535Z,998.97
2018-03-28T00:59:30.516Z,998.96
2018-03-28T01:00:30.484Z,998.96
2018-03-28T01:01:30.461Z,998.91
2018-03-28T01:02:30.430Z,998.96
2018-03-28T01:03:30.415Z,998.94
2018-03-28T01:04:30.375Z,998.93
2018-03-28T01:05:30.348Z,998.92
2018-03-28T01:06:30.323Z,998.92
2018-03-28T01:07:30.296Z,998.95
2018-03-28T01:08:30.265Z,998.93
2018-03-28T01:09:30.260Z,998.93
2018-03-28T01:10:30.214Z,998.90
2018-03-28T01:11:30.180Z,998.92
2018-03-28T01:12:30.159Z,998.90
2018-03-28T01:13:30.135Z,998.89
2018-03-28T01:14:30.109Z,998.91
2018-03-28T01:15:30.077Z,998.89
2018-03-28T01:16:30.065Z,998.92
2018-03-28T01:17:30.016Z,998.90
2018-03-28T01:18:30.018Z,998.87
2018-03-28T01:19:29.962Z,998.88
2018-03-28T01:20:29.937Z,998.93
2018-03-28T01:21:29.917Z,998.91
2018-03-28T01:22:29.889Z,998.92
2018-03-28T01:23:29.854Z,998.95
2018-03-28T01:24:29.830Z,998.90
2018-03-28T01:25:29.796Z,998.91
2018-03-28T01:26:29.773Z,998.94
2018-03-28T01:27:29.760Z,998.91
2018-03-28T01:28:29.720Z,998.94
2018-03-28T01:29:29.696Z,998.90
2018-03-28T01:30:29.688Z,998.96
2018-03-28T01:31:29.640Z,998.93
2018-03-28T01:32:29.610Z,998.92
2018-03-28T01:33:29.594Z,998.96
2018-03-28T01:34:29.561Z,998.94
2018-03-28T01:35:29.533Z,998.93
2018-03-28T01:36:29.508Z,998.91
2018-03-28T01:37:29.471Z,998.88
2018-03-28T01:38:29.448Z,998.87
2018-03-28T01:39:29.447Z,998.86
2018-03-28T01:40:29.389Z,998.88
2018-03-28T01:41:29.366Z,998.84
2018-03-28T01:42:29.341Z,998.80
2018-03-28T01:43:29.313Z,998.82
2018-03-28T01:44:29.294Z,998.80
2018-03-28T01:45:29.252Z,998.80
2018-03-28T01:46:29.226Z,998.81
2018-03-28T01:47:29.208Z,998.80
2018-03-28T01:48:29.177Z,998.83
2018-03-28T01:49:29.144Z,998.80
2018-03-28T01:50:29.121Z,998.80
2018-03-28T01:51:29.096Z,998.79
2018-03-28T01:52:29.067Z,998.78
2018-03-28T01:53:29.043Z,998.69
2018-03-28T01:54:29.012Z,998.72
2018-03-28T01:55:28.986Z,998.73
2018-03-28T01:56:28.954Z,998.69
2018-03-28T01:57:28.933Z,998.71
2018-03-28T01:58:28.899Z,998.65
2018-03-28T01:59:28.879Z,998.69
2018-03-28T02:00:28.848Z,998.64
2018-03-28T02:01:28.828Z,998.66
2018-03-28T02:02:28.803Z,998.65
2018-03-28T02:03:28.769Z,998.62
2018-03-28T02:04:28.734Z,998.64
2018-03-28T02:05:28.716Z,998.62
2018-03-28T02:06:28.685Z,998.57
2018-03-28T02:07:28.659Z,998.61
2018-03-28T02:08:28.630Z,998.66
2018-03-28T02:09:28.606Z,998.70
2018-03-28T02:10:28.581Z,998.72
2018-03-28T02:11:28.558Z,998.72
2018-03-28T02:12:28.523Z,998.75
2018-03-28T02:13:28.493Z,998.80
2018-03-28T02:14:28.465Z,998.82
2018-03-28T02:15:28.443Z,998.81
2018-03-28T02:16:28.438Z,998.83
2018-03-28T02:17:28.383Z,998.82
2018-03-28T02:18:28.356Z,998.83
2018-03-28T02:19:28.332Z,998.83
2018-03-28T02:20:28.308Z,998.80
2018-03-28T02:21:28.280Z,998.80
2018-03-28T02:22:28.245Z,998.73
2018-03-28T02:23:28.229Z,998.76
2018-03-28T02:24:28.195Z,998.74
2018-03-28T02:25:28.167Z,998.74
2018-03-28T02:26:28.143Z,998.72
2018-03-28T02:27:28.127Z,998.70
2018-03-28T02:28:28.084Z,998.73
2018-03-28T02:29:28.053Z,998.72
2018-03-28T02:30:28.030Z,998.72
2018-03-28T02:31:28.009Z,998.70
2018-03-28T02:32:27.979Z,998.70
2018-03-28T02:33:27.948Z,998.67
2018-03-28T02:34:27.925Z,998.69
2018-03-28T02:35:27.899Z,998.68
2018-03-28T02:36:27.865Z,998.66
2018-03-28T02:37:27.842Z,998.67
2018-03-28T02:38:27.816Z,998.63
2018-03-28T02:39:27.786Z,998.66
2018-03-28T02:40:27.761Z,998.60
2018-03-28T02:41:27.742Z,998.64
2018-03-28T02:42:27.713Z,998.62
2018-03-28T02:43:27.677Z,998.62
2018-03-28T02:44:27.644Z,998.58
2018-03-28T02:45:27.621Z,998.56
2018-03-28T02:46:27.616Z,998.53
2018-03-28T02:47:27.572Z,998.57
2018-03-28T02:48:27.546Z,998.58
2018-03-28T02:49:27.511Z,998.58
2018-03-28T02:50:27.485Z,998.58
2018-03-28T02:51:27.473Z,998.62
2018-03-28T02:52:27.439Z,998.60
2018-03-28T02:53:27.399Z,998.62
2018-03-28T02:54:27.377Z,998.60
2018-03-28T02:55:27.357Z,998.57
2018-03-28T02:56:27.322Z,998.59
2018-03-28T02:57:27.294Z,998.58
2018-03-28T02:58:27.265Z,998.58
2018-03-28T02:59:27.250Z,998.56
2018-03-28T03:00:27.210Z,998.54
2018-03-28T03:01:27.191Z,998.55
2018-03-28T03:02:27.162Z,998.55
2018-03-28T03:03:27.137Z,998.53
2018-03-28T03:04:27.104Z,998.53
2018-03-28T03:05:27.091Z,998.53
2018-03-28T03:06:27.057Z,998.53
2018-03-28T03:07:27.066Z,998.50
2018-03-28T03:08:27.070Z,998.51
2018-03-28T03:09:27.007Z,998.54
2018-03-28T03:10:26.948Z,998.53
2018-03-28T03:11:26.935Z,998.52
2018-03-28T03:12:26.917Z,998.53
2018-03-28T03:13:26.871Z,998.53
2018-03-28T03:14:26.853Z,998.52
2018-03-28T03:15:26.832Z,998.53
2018-03-28T03:16:26.786Z,998.53
2018-03-28T03:17:26.788Z,998.55
2018-03-28T03:18:26.763Z,998.54
2018-03-28T03:19:26.727Z,998.56
2018-03-28T03:20:26.744Z,998.56
2018-03-28T03:21:26.707Z,998.59
2018-03-28T03:22:26.664Z,998.59
2018-03-28T03:23:26.641Z,998.56
2018-03-28T03:24:26.587Z,998.58
2018-03-28T03:25:26.590Z,998.57
2018-03-28T03:26:26.530Z,998.60
2018-03-28T03:27:26.494Z,998.60
2018-03-28T03:28:26.451Z,998.59
2018-03-28T03:29:26.425Z,998.57
2018-03-28T03:30:26.420Z,998.60
2018-03-28T03:31:26.377Z,998.61
2018-03-28T03:32:26.383Z,998.61
2018-03-28T03:33:26.351Z,998.59
2018-03-28T03:34:26.312Z,998.61
2018-03-28T03:35:26.303Z,998.60
2018-03-28T03:36:29.171Z,998.61
2018-03-28T03:37:26.243Z,998.61
2018-03-28T03:38:26.187Z,998.62
2018-03-28T03:39:26.364Z,998.61
2018-03-28T03:40:26.834Z,998.61
2018-03-28T03:41:26.106Z,998.60
2018-03-28T03:42:26.103Z,998.62
2018-03-28T03:43:26.057Z,998.64
2018-03-28T03:44:26.029Z,998.67
2018-03-28T03:45:26.074Z,998.69
2018-03-28T03:46:26.022Z,998.69
2018-03-28T03:47:25.972Z,998.66
2018-03-28T03:48:25.930Z,998.65
2018-03-28T03:49:26.301Z,998.64
2018-03-28T03:50:25.868Z,998.65
2018-03-28T03:51:25.846Z,998.66
2018-03-28T03:52:25.811Z,998.66
2018-03-28T03:53:25.809Z,998.63
2018-03-28T03:54:25.793Z,998.63
2018-03-28T03:55:27.643Z,998.61
2018-03-28T03:56:25.685Z,998.62
2018-03-28T03:57:25.671Z,998.62
2018-03-28T03:58:25.672Z,998.71
2018-03-28T03:59:25.628Z,998.66
2018-03-28T04:00:25.581Z,998.67
2018-03-28T04:01:25.564Z,998.68
2018-03-28T04:02:25.549Z,998.68
2018-03-28T04:03:25.524Z,998.63
2018-03-28T04:04:25.506Z,998.65
2018-03-28T04:05:25.484Z,998.66
2018-03-28T04:06:25.439Z,998.61
2018-03-28T04:07:25.396Z,998.62
2018-03-28T04:08:25.406Z,998.54
2018-03-28T04:09:25.377Z,998.53
2018-03-28T04:10:25.318Z,998.49
2018-03-28T04:11:25.313Z,998.47
2018-03-28T04:12:25.258Z,998.44
2018-03-28T04:13:25.262Z,998.41
2018-03-28T04:14:25.238Z,998.40
2018-03-28T04:15:25.171Z,998.41
2018-03-28T04:16:25.193Z,998.43
2018-03-28T04:17:25.116Z,998.44
2018-03-28T04:18:25.100Z,998.49
2018-03-28T04:19:25.086Z,998.46
2018-03-28T04:20:25.048Z,998.46
2018-03-28T04:21:25.007Z,998.45
2018-03-28T04:22:24.976Z,998.50
2018-03-28T04:23:24.956Z,998.54
2018-03-28T04:24:24.922Z,998.50
2018-03-28T04:25:24.916Z,998.51
2018-03-28T04:26:24.907Z,998.51
2018-03-28T04:27:24.842Z,998.55
2018-03-28T04:28:24.846Z,998.56
2018-03-28T04:29:24.784Z,998.54
2018-03-28T04:30:24.817Z,998.57
2018-03-28T04:31:24.744Z,998.50
2018-03-28T04:32:24.708Z,998.52
2018-03-28T04:33:24.682Z,998.53
2018-03-28T04:34:24.714Z,998.57
2018-03-28T04:35:24.644Z,998.57
2018-03-28T04:36:24.590Z,998.56
2018-03-28T04:37:24.582Z,998.56
2018-03-28T04:38:24.582Z,998.58
2018-03-28T04:39:24.534Z,998.60
2018-03-28T04:40:24.500Z,998.58
2018-03-28T04:41:25.300Z,998.59
2018-03-28T04:42:24.495Z,998.61
2018-03-28T04:43:24.421Z,998.61
2018-03-28T04:44:24.375Z,998.63
2018-03-28T04:45:24.345Z,998.59
2018-03-28T04:46:24.348Z,998.60
2018-03-28T04:47:24.300Z,998.57
2018-03-28T04:48:24.277Z,998.59
2018-03-28T04:49:24.239Z,998.58
2018-03-28T04:50:24.204Z,998.59
2018-03-28T04:51:24.180Z,998.58
2018-03-28T04:52:24.166Z,998.60
2018-03-28T04:53:25.500Z,998.63
2018-03-28T04:54:25.459Z,998.62
2018-03-28T04:55:24.593Z,998.59
2018-03-28T04:56:24.061Z,998.64
2018-03-28T04:57:24.101Z,998.65
2018-03-28T04:58:24.000Z,998.59
2018-03-28T04:59:23.978Z,998.56
2018-03-28T05:00:23.927Z,998.58
2018-03-28T05:01:23.906Z,998.59
2018-03-28T05:02:23.905Z,998.57
2018-03-28T05:03:23.858Z,998.53
2018-03-28T05:04:23.880Z,998.54
2018-03-28T05:05:23.815Z,998.52
2018-03-28T05:06:23.766Z,998.45
2018-03-28T05:07:23.745Z,998.41
2018-03-28T05:08:23.713Z,998.42
2018-03-28T05:09:23.685Z,998.42
2018-03-28T05:10:23.650Z,998.43
2018-03-28T05:11:23.641Z,998.40
2018-03-28T05:12:23.607Z,998.42
2018-03-28T05:13:23.601Z,998.40
2018-03-28T05:14:23.633Z,998.41
2018-03-28T05:15:23.897Z,998.44
2018-03-28T05:16:23.501Z,998.38
2018-03-28T05:17:23.504Z,998.39
2018-03-28T05:18:23.443Z,998.43
2018-03-28T05:19:23.631Z,998.43
2018-03-28T05:20:25.040Z,998.49
2018-03-28T05:21:23.395Z,998.48
2018-03-28T05:22:23.332Z,998.54
2018-03-28T05:23:23.335Z,998.52
2018-03-28T05:24:23.288Z,998.51
2018-03-28T05:25:23.275Z,998.53
2018-03-28T05:26:23.255Z,998.50
2018-03-28T05:27:23.589Z,998.50
2018-03-28T05:28:28.648Z,998.46
2018-03-28T05:29:23.177Z,998.40
2018-03-28T05:30:23.118Z,998.44
2018-03-28T05:31:23.094Z,998.42
2018-03-28T05:32:23.096Z,998.46
2018-03-28T05:33:23.076Z,998.50
2018-03-28T05:34:23.369Z,998.55
2018-03-28T05:35:23.717Z,998.58
2018-03-28T05:36:25.525Z,998.57
2018-03-28T05:37:22.920Z,998.58
2018-03-28T05:38:22.976Z,998.56
2018-03-28T05:39:22.943Z,998.56
2018-03-28T05:40:23.034Z,998.58
2018-03-28T05:41:22.885Z,998.60
2018-03-28T05:42:22.850Z,998.63
2018-03-28T05:43:22.831Z,998.59
2018-03-28T05:44:22.859Z,998.61
2018-03-28T05:45:22.814Z,998.65
2018-03-28T05:46:22.668Z,998.66
2018-03-28T05:47:22.673Z,998.67
2018-03-28T05:48:22.603Z,998.65
2018-03-28T05:49:22.704Z,998.68
2018-03-28T05:50:22.668Z,998.70
2018-03-28T05:51:22.533Z,998.68
2018-03-28T05:52:22.508Z,998.67
2018-03-28T05:53:22.495Z,998.64
2018-03-28T05:54:22.446Z,998.66
2018-03-28T05:55:22.436Z,998.65
2018-03-28T05:56:22.418Z,998.65
2018-03-28T05:57:23.279Z,998.67
2018-03-28T05:58:22.382Z,998.65
2018-03-28T05:59:22.347Z,998.65
2018-03-28T06:00:22.290Z,998.65
2018-03-28T06:01:22.486Z,998.65
2018-03-28T06:02:22.256Z,998.67
2018-03-28T06:03:22.513Z,998.69
2018-03-28T06:04:22.192Z,998.70
2018-03-28T06:05:22.167Z,998.70
2018-03-28T06:06:22.130Z,998.70
2018-03-28T06:07:22.148Z,998.72
2018-03-28T06:08:22.144Z,998.70
2018-03-28T06:09:22.430Z,998.69
2018-03-28T06:10:22.016Z,998.69
2018-03-28T06:11:22.664Z,998.70
2018-03-28T06:12:21.955Z,998.66
2018-03-28T06:13:21.945Z,998.66
2018-03-28T06:14:21.952Z,998.68
2018-03-28T06:15:21.881Z,998.61
2018-03-28T06:16:21.844Z,998.60
2018-03-28T06:17:21.823Z,998.61
2018-03-28T06:18:21.802Z,998.61
2018-03-28T06:19:21.772Z,998.62
2018-03-28T06:20:21.777Z,998.65
2018-03-28T06:21:21.729Z,998.61
2018-03-28T06:22:21.679Z,998.62
2018-03-28T06:23:22.541Z,998.60
2018-03-28T06:24:21.634Z,998.61
2018-03-28T06:25:21.614Z,998.63
2018-03-28T06:26:21.640Z,998.60
2018-03-28T06:27:21.551Z,998.60
2018-03-28T06:28:21.539Z,998.57
2018-03-28T06:29:21.549Z,998.59
2018-03-28T06:30:21.473Z,998.55
2018-03-28T06:31:21.480Z,998.55
2018-03-28T06:32:21.430Z,998.55
2018-03-28T06:33:21.376Z,998.54
2018-03-28T06:34:21.355Z,998.53
2018-03-28T06:35:21.320Z,998.47
2018-03-28T06:36:21.292Z,998.45
2018-03-28T06:37:21.283Z,998.49
2018-03-28T06:38:21.280Z,998.47
2018-03-28T06:39:21.218Z,998.49
2018-03-28T06:40:21.204Z,998.45
2018-03-28T06:41:21.157Z,998.48
2018-03-28T06:42:21.190Z,998.42
2018-03-28T06:43:21.130Z,998.46
2018-03-28T06:44:21.101Z,998.50
2018-03-28T06:45:21.057Z,998.48
2018-03-28T06:46:21.122Z,998.49
2018-03-28T06:47:21.041Z,998.53
2018-03-28T06:48:20.956Z,998.49
2018-03-28T06:49:20.962Z,998.50
2018-03-28T06:50:20.940Z,998.49
2018-03-28T06:51:20.879Z,998.46
2018-03-28T06:52:20.846Z,998.43
2018-03-28T06:53:20.819Z,998.43
2018-03-28T06:54:20.786Z,998.39
2018-03-28T06:55:20.778Z,998.44
2018-03-28T06:56:20.739Z,998.43
2018-03-28T06:57:20.720Z,998.41
2018-03-28T06:58:20.695Z,998.40
2018-03-28T06:59:20.666Z,998.38
2018-03-28T07:00:20.637Z,998.35
2018-03-28T07:01:20.622Z,998.36
2018-03-28T07:02:20.579Z,998.37
2018-03-28T07:03:20.555Z,998.34
2018-03-28T07:04:20.529Z,998.28
2018-03-28T07:05:20.493Z,998.29
2018-03-28T07:06:20.483Z,998.27
2018-03-28T07:07:20.441Z,998.25
2018-03-28T07:08:20.412Z,998.29
2018-03-28T07:09:20.374Z,998.28
2018-03-28T07:10:20.358Z,998.27
2018-03-28T07:11:20.325Z,998.26
2018-03-28T07:12:20.302Z,998.28
2018-03-28T07:13:20.313Z,998.26
2018-03-28T07:14:20.243Z,998.30
2018-03-28T07:15:20.211Z,998.23
2018-03-28T07:16:20.199Z,998.22
2018-03-28T07:17:20.172Z,998.22
2018-03-28T07:18:20.134Z,998.18
2018-03-28T07:19:20.134Z,998.24
2018-03-28T07:20:20.100Z,998.20
2018-03-28T07:21:20.099Z,998.22
2018-03-28T07:22:20.039Z,998.19
2018-03-28T07:23:20.004Z,998.18
2018-03-28T07:24:20.001Z,998.20
2018-03-28T07:25:19.959Z,998.25
2018-03-28T07:26:19.933Z,998.25
2018-03-28T07:27:19.894Z,998.31
2018-03-28T07:28:19.892Z,998.25
2018-03-28T07:29:19.858Z,998.29
2018-03-28T07:30:19.825Z,998.29
2018-03-28T07:31:19.790Z,998.31
2018-03-28T07:32:19.754Z,998.32
2018-03-28T07:33:19.762Z,998.35
2018-03-28T07:34:19.734Z,998.37
2018-03-28T07:35:19.677Z,998.36
2018-03-28T07:36:19.653Z,998.31
2018-03-28T07:37:19.629Z,998.30
2018-03-28T07:38:19.609Z,998.31
2018-03-28T07:39:19.601Z,998.28
2018-03-28T07:40:19.549Z,998.30
2018-03-28T07:41:19.522Z,998.27
2018-03-28T07:42:19.484Z,998.30
2018-03-28T07:43:19.472Z,998.28
2018-03-28T07:44:19.438Z,998.25
2018-03-28T07:45:19.419Z,998.26
2018-03-28T07:46:19.380Z,998.25
2018-03-28T07:47:19.349Z,998.28
2018-03-28T07:48:19.320Z,998.22
2018-03-28T07:49:19.297Z,998.22
2018-03-28T07:50:19.272Z,998.29
2018-03-28T07:51:19.241Z,998.32
2018-03-28T07:52:19.248Z,998.29
2018-03-28T07:53:19.216Z,998.29
2018-03-28T07:54:19.162Z,998.29
2018-03-28T07:55:19.140Z,998.28
2018-03-28T07:56:19.107Z,998.27
2018-03-28T07:57:19.090Z,998.24
2018-03-28T07:58:19.062Z,998.27
2018-03-28T07:59:19.027Z,998.30
2018-03-28T08:00:19.005Z,998.30
2018-03-28T08:01:18.979Z,998.31
2018-03-28T08:02:18.956Z,998.38
2018-03-28T08:03:18.922Z,998.35
2018-03-28T08:04:18.892Z,998.35
2018-03-28T08:05:18.872Z,998.29
2018-03-28T08:06:19.799Z,998.32
2018-03-28T08:07:18.810Z,998.38
2018-03-28T08:08:18.789Z,998.37
2018-03-28T08:09:18.759Z,998.36
2018-03-28T08:10:18.740Z,998.42
2018-03-28T08:11:18.705Z,998.38
2018-03-28T08:12:18.678Z,998.40
2018-03-28T08:13:18.663Z,998.34
2018-03-28T08:14:18.627Z,998.35
2018-03-28T08:15:18.591Z,998.39
2018-03-28T08:16:18.577Z,998.36
2018-03-28T08:17:18.539Z,998.27
2018-03-28T08:18:18.524Z,998.30
2018-03-28T08:19:18.518Z,998.28
2018-03-28T08:20:18.469Z,998.25
2018-03-28T08:21:18.430Z,998.26
2018-03-28T08:22:18.413Z,998.22
2018-03-28T08:23:18.450Z,998.25
2018-03-28T08:24:18.430Z,998.27
2018-03-28T08:25:18.344Z,998.31
2018-03-28T08:26:18.499Z,998.28
2018-03-28T08:27:18.354Z,998.30
2018-03-28T08:28:18.267Z,998.25
2018-03-28T08:29:18.217Z,998.26
2018-03-28T08:30:18.199Z,998.32
2018-03-28T08:31:18.174Z,998.26
2018-03-28T08:32:18.148Z,998.27
2018-03-28T08:33:18.135Z,998.28
2018-03-28T08:34:18.110Z,998.23
2018-03-28T08:35:18.078Z,998.21
2018-03-28T08:36:18.039Z,998.17
2018-03-28T08:37:18.024Z,998.19
2018-03-28T08:38:17.986Z,998.20
2018-03-28T08:39:17.989Z,998.21
2018-03-28T08:40:17.949Z,998.18
2018-03-28T08:41:17.942Z,998.16
2018-03-28T08:42:17.885Z,998.14
2018-03-28T08:43:17.865Z,998.12
2018-03-28T08:44:17.821Z,998.19
2018-03-28T08:45:17.798Z,998.16
2018-03-28T08:46:17.775Z,998.16
2018-03-28T08:47:17.746Z,998.14
2018-03-28T08:48:17.724Z,998.16
2018-03-28T08:49:17.700Z,998.16
2018-03-28T08:50:17.668Z,998.13
2018-03-28T08:51:17.646Z,998.10
2018-03-28T08:52:17.676Z,998.06
2018-03-28T08:53:17.616Z,998.03
2018-03-28T08:54:17.569Z,998.07
2018-03-28T08:55:17.540Z,998.03
2018-03-28T08:56:17.530Z,998.06
2018-03-28T08:57:17.519Z,998.04
2018-03-28T08:58:17.457Z,998.01
2018-03-28T08:59:17.458Z,998.08
2018-03-28T09:00:17.413Z,998.04
2018-03-28T09:01:17.387Z,998.07
2018-03-28T09:02:17.388Z,998.08
2018-03-28T09:03:17.332Z,998.07
2018-03-28T09:04:17.298Z,998.04
2018-03-28T09:05:17.289Z,998.07
2018-03-28T09:06:17.256Z,998.05
2018-03-28T09:07:17.230Z,998.05
2018-03-28T09:08:17.211Z,998.03
2018-03-28T09:09:17.207Z,998.03
2018-03-28T09:10:17.144Z,998.08
2018-03-28T09:11:17.826Z,998.10
2018-03-28T09:12:17.107Z,998.04
2018-03-28T09:13:17.073Z,998.06
2018-03-28T09:14:17.053Z,998.02
2018-03-28T09:15:17.031Z,998.02
2018-03-28T09:16:16.994Z,998.00
2018-03-28T09:17:17.082Z,997.98
2018-03-28T09:18:16.978Z,997.98
2018-03-28T09:19:16.918Z,997.99
2018-03-28T09:20:16.906Z,997.99
2018-03-28T09:21:16.867Z,997.99
2018-03-28T09:22:16.840Z,997.95
2018-03-28T09:23:16.817Z,998.00
2018-03-28T09:24:16.788Z,997.97
2018-03-28T09:25:16.762Z,997.98
2018-03-28T09:26:16.735Z,997.97
2018-03-28T09:27:16.717Z,998.02
2018-03-28T09:28:16.688Z,997.97
2018-03-28T09:29:16.655Z,997.98
2018-03-28T09:30:16.639Z,998.00
2018-03-28T09:31:16.619Z,998.00
2018-03-28T09:32:16.583Z,998.02
2018-03-28T09:33:16.552Z,998.01
2018-03-28T09:34:16.550Z,998.01
2018-03-28T09:35:16.502Z,997.96
2018-03-28T09:36:16.482Z,998.00
2018-03-28T09:37:16.483Z,998.00
2018-03-28T09:38:16.432Z,997.92
2018-03-28T09:39:16.402Z,997.97
2018-03-28T09:40:16.381Z,997.97
2018-03-28T09:41:16.351Z,997.96
2018-03-28T09:42:16.322Z,997.95
2018-03-28T09:43:16.303Z,997.93
2018-03-28T09:44:16.273Z,997.96
2018-03-28T09:45:16.252Z,997.93
2018-03-28T09:46:16.230Z,997.92
2018-03-28T09:47:16.204Z,997.87
2018-03-28T09:48:16.172Z,997.85
2018-03-28T09:49:16.152Z,997.84
2018-03-28T09:50:16.136Z,997.84
2018-03-28T09:51:16.093Z,997.90
2018-03-28T09:52:16.084Z,997.84
2018-03-28T09:53:16.059Z,997.84
2018-03-28T09:54:16.018Z,997.88
2018-03-28T09:55:16.002Z,997.76
2018-03-28T09:56:15.975Z,997.82
2018-03-28T09:57:15.944Z,997.86
2018-03-28T09:58:15.917Z,997.83
2018-03-28T09:59:15.919Z,997.77
2018-03-28T10:00:15.867Z,997.75
2018-03-28T10:01:15.852Z,997.74
2018-03-28T10:02:15.819Z,997.74
2018-03-28T10:03:15.800Z,997.74
2018-03-28T10:04:15.769Z,997.73
2018-03-28T10:05:15.747Z,997.72
2018-03-28T10:06:15.778Z,997.68
2018-03-28T10:07:15.696Z,997.70
2018-03-28T10:08:15.663Z,997.62
2018-03-28T10:09:15.667Z,997.60
2018-03-28T10:10:15.619Z,997.57
2018-03-28T10:11:15.590Z,997.59
2018-03-28T10:12:15.564Z,997.60
2018-03-28T10:13:15.553Z,997.57
2018-03-28T10:14:15.515Z,997.59
2018-03-28T10:15:15.494Z,997.63
2018-03-28T10:16:15.471Z,997.59
2018-03-28T10:17:15.444Z,997.61
2018-03-28T10:18:15.419Z,997.70
2018-03-28T10:19:15.397Z,997.66
2018-03-28T10:20:15.396Z,997.67
2018-03-28T10:21:15.345Z,997.67
2018-03-28T10:22:15.323Z,997.69
2018-03-28T10:23:15.291Z,997.68
2018-03-28T10:24:15.271Z,997.67
2018-03-28T10:25:15.266Z,997.69
2018-03-28T10:26:15.213Z,997.67
2018-03-28T10:27:15.206Z,997.68
2018-03-28T10:28:15.161Z,997.65
2018-03-28T10:29:15.141Z,997.71
2018-03-28T10:30:15.120Z,997.69
2018-03-28T10:31:15.091Z,997.63
2018-03-28T10:32:15.069Z,997.61
2018-03-28T10:33:15.042Z,997.61
2018-03-28T10:34:15.019Z,997.55
2018-03-28T10:35:15.002Z,997.58
2018-03-28T10:36:14.959Z,997.57
2018-03-28T10:37:14.946Z,997.53
2018-03-28T10:38:14.916Z,997.56
2018-03-28T10:39:14.887Z,997.58
2018-03-28T10:40:14.868Z,997.56
2018-03-28T10:41:14.852Z,997.54
2018-03-28T10:42:14.817Z,997.56
2018-03-28T10:43:14.795Z,997.56
2018-03-28T10:44:14.764Z,997.57
2018-03-28T10:45:14.742Z,997.51
2018-03-28T10:46:14.711Z,997.49
2018-03-28T10:47:14.690Z,997.44
2018-03-28T10:48:14.669Z,997.44
2018-03-28T10:49:14.636Z,997.35
2018-03-28T10:50:14.617Z,997.30
2018-03-28T10:51:14.584Z,997.26
2018-03-28T10:52:14.567Z,997.26
2018-03-28T10:53:14.535Z,997.22
2018-03-28T10:54:14.516Z,997.22
2018-03-28T10:55:14.492Z,997.23
2018-03-28T10:56:14.487Z,997.23
2018-03-28T10:57:14.463Z,997.19
2018-03-28T10:58:14.408Z,997.20
2018-03-28T10:59:14.387Z,997.21
2018-03-28T11:00:14.358Z,997.21
2018-03-28T11:01:14.343Z,997.22
2018-03-28T11:02:14.312Z,997.20
2018-03-28T11:03:14.302Z,997.19
2018-03-28T11:04:14.262Z,997.19
2018-03-28T11:05:14.240Z,997.18
2018-03-28T11:06:14.211Z,997.16
2018-03-28T11:07:14.198Z,997.16
2018-03-28T11:08:14.164Z,997.13
2018-03-28T11:09:14.147Z,997.10
2018-03-28T11:10:14.114Z,997.08
2018-03-28T11:11:14.095Z,997.08
2018-03-28T11:12:14.073Z,997.07
2018-03-28T11:13:14.038Z,997.06
2018-03-28T11:14:14.030Z,997.05
2018-03-28T11:15:13.994Z,997.03
2018-03-28T11:16:13.972Z,997.03
2018-03-28T11:17:13.942Z,997.01
2018-03-28T11:18:13.926Z,996.97
2018-03-28T11:19:13.898Z,997.00
2018-03-28T11:20:13.871Z,996.95
2018-03-28T11:21:13.844Z,996.94
2018-03-28T11:22:13.822Z,996.91
2018-03-28T11:23:13.800Z,996.89
2018-03-28T11:24:13.778Z,996.89
2018-03-28T11:25:13.750Z,996.93
2018-03-28T11:26:13.734Z,996.89
2018-03-28T11:27:13.710Z,996.89
2018-03-28T11:28:13.710Z,996.85
2018-03-28T11:29:13.655Z,996.85
2018-03-28T11:30:13.656Z,996.80
2018-03-28T11:31:13.600Z,996.81
2018-03-28T11:32:13.597Z,996.78
2018-03-28T11:33:13.551Z,996.74
2018-03-28T11:34:13.531Z,996.72
2018-03-28T11:35:13.501Z,996.73
2018-03-28T11:36:13.481Z,996.71
2018-03-28T11:37:13.452Z,996.65
2018-03-28T11:38:13.431Z,996.69
2018-03-28T11:39:13.407Z,996.61
2018-03-28T11:40:13.376Z,996.62
2018-03-28T11:41:13.360Z,996.58
2018-03-28T11:42:13.327Z,996.55
2018-03-28T11:43:13.309Z,996.50
2018-03-28T11:44:13.289Z,996.48
2018-03-28T11:45:13.252Z,996.49
2018-03-28T11:46:13.234Z,996.48
2018-03-28T11:47:13.206Z,996.44
2018-03-28T11:48:13.184Z,996.40
2018-03-28T11:49:13.152Z,996.41
2018-03-28T11:50:13.134Z,996.41
2018-03-28T11:51:13.114Z,996.38
2018-03-28T11:52:13.075Z,996.37
2018-03-28T11:53:13.846Z,996.36
2018-03-28T11:54:13.030Z,996.34
2018-03-28T11:55:13.004Z,996.36
2018-03-28T11:56:12.986Z,996.33
2018-03-28T11:57:12.964Z,996.30
2018-03-28T11:58:12.936Z,996.29
2018-03-28T11:59:12.908Z,996.26
2018-03-28T12:00:12.885Z,996.27
2018-03-28T12:01:12.860Z,996.24
2018-03-28T12:02:12.830Z,996.23
2018-03-28T12:03:12.804Z,996.19
2018-03-28T12:04:12.819Z,996.19
2018-03-28T12:05:12.756Z,996.16
2018-03-28T12:06:12.732Z,996.20
2018-03-28T12:07:12.717Z,996.16
2018-03-28T12:08:12.685Z,996.13
2018-03-28T12:09:12.657Z,996.12
2018-03-28T12:10:12.640Z,996.06
2018-03-28T12:11:12.614Z,996.07
2018-03-28T12:12:12.578Z,996.07
2018-03-28T12:13:12.562Z,996.01
2018-03-28T12:14:12.573Z,996.02
2018-03-28T12:15:12.509Z,996.00
2018-03-28T12:16:12.491Z,995.96
2018-03-28T12:17:12.457Z,995.98
2018-03-28T12:18:12.439Z,995.93
2018-03-28T12:19:12.408Z,995.87
2018-03-28T12:20:12.396Z,995.87
2018-03-28T12:21:12.367Z,995.85
2018-03-28T12:22:12.380Z,995.84
2018-03-28T12:23:12.317Z,995.82
2018-03-28T12:24:12.298Z,995.78
2018-03-28T12:25:12.299Z,995.77
2018-03-28T12:26:12.254Z,995.73
2018-03-28T12:27:12.242Z,995.74
2018-03-28T12:28:12.183Z,995.71